createdAt,value
2022-10-30T00:01:14.289Z,15.50
2022-10-30T00:02:47.997Z,15.93
2022-10-30T00:04:20.744Z,15.53
2022-10-30T00:05:53.615Z,13.83
2022-10-30T00:07:26.393Z,15.43
2022-10-30T00:08:59.118Z,14.50
2022-10-30T00:10:32.218Z,14.60
2022-10-30T00:12:05.521Z,13.67
2022-10-30T00:13:37.792Z,14.43
2022-10-30T00:15:11.960Z,12.43
2022-10-30T00:16:44.946Z,12.33
2022-10-30T00:18:18.019Z,13.17
2022-10-30T00:19:50.763Z,13.23
2022-10-30T00:21:23.484Z,11.63
2022-10-30T00:22:55.639Z,13.10
2022-10-30T00:24:28.615Z,12.73
2022-10-30T00:26:05.736Z,11.67
2022-10-30T00:27:38.511Z,13.03
2022-10-30T00:29:11.271Z,13.33
2022-10-30T00:30:43.989Z,13.27
2022-10-30T00:32:16.825Z,12.77
2022-10-30T00:33:50.856Z,12.37
2022-10-30T00:35:23.588Z,12.00
2022-10-30T00:36:56.340Z,11.67
2022-10-30T00:38:29.227Z,12.27
2022-10-30T00:40:01.966Z,12.10
2022-10-30T00:41:37.035Z,12.90
2022-10-30T00:43:29.083Z,13.07
2022-10-30T00:45:01.805Z,11.53
2022-10-30T00:46:38.017Z,14.33
2022-10-30T00:48:11.839Z,13.03
2022-10-30T00:49:51.518Z,12.17
2022-10-30T00:51:24.538Z,14.33
2022-10-30T00:53:01.622Z,13.03
2022-10-30T00:54:35.532Z,11.67
2022-10-30T00:56:10.554Z,11.60
2022-10-30T00:57:44.591Z,12.33
2022-10-30T00:59:22.160Z,13.57
2022-10-30T01:00:57.859Z,12.70
2022-10-30T01:02:30.843Z,13.27
2022-10-30T01:04:06.230Z,13.50
2022-10-30T01:05:40.088Z,12.50
2022-10-30T01:07:17.029Z,12.00
2022-10-30T01:08:55.316Z,12.70
2022-10-30T01:10:31.770Z,13.03
2022-10-30T01:12:04.742Z,13.63
2022-10-30T01:13:40.731Z,13.50
2022-10-30T01:15:14.787Z,12.40
2022-10-30T01:17:06.414Z,12.07
2022-10-30T01:18:48.480Z,11.80
2022-10-30T01:20:35.103Z,11.50
2022-10-30T01:22:22.537Z,13.27
2022-10-30T01:24:11.323Z,11.70
2022-10-30T01:25:54.295Z,12.80
2022-10-30T01:27:38.256Z,11.37
2022-10-30T01:29:35.325Z,13.40
2022-10-30T01:31:26.426Z,12.13
2022-10-30T01:33:12.715Z,12.97
2022-10-30T01:34:52.457Z,14.10
2022-10-30T01:36:30.067Z,12.10
2022-10-30T01:38:07.277Z,12.33
2022-10-30T01:39:41.961Z,13.27
2022-10-30T01:41:14.692Z,11.77
2022-10-30T01:42:50.621Z,11.87
2022-10-30T01:44:29.761Z,12.83
2022-10-30T01:46:21.296Z,12.97
2022-10-30T01:48:15.049Z,13.80
2022-10-30T01:50:16.136Z,11.73
2022-10-30T01:51:59.489Z,13.47
2022-10-30T01:53:47.581Z,13.27
2022-10-30T01:55:33.404Z,13.70
2022-10-30T01:57:12.736Z,14.37
2022-10-30T01:58:50.694Z,13.07
2022-10-30T02:00:24.904Z,14.30
2022-10-30T02:01:57.682Z,14.47
2022-10-30T02:03:30.477Z,13.30
2022-10-30T02:05:03.084Z,12.47
2022-10-30T02:06:36.681Z,12.50
2022-10-30T02:08:08.461Z,12.17
2022-10-30T02:09:41.289Z,11.27
2022-10-30T02:11:13.653Z,11.10
2022-10-30T02:12:46.400Z,12.47
2022-10-30T02:14:24.260Z,12.33
2022-10-30T02:15:59.956Z,12.67
2022-10-30T02:17:32.715Z,12.60
2022-10-30T02:19:07.444Z,14.23
2022-10-30T02:20:41.564Z,15.07
2022-10-30T02:22:14.390Z,15.67
2022-10-30T02:23:46.238Z,15.60
2022-10-30T02:25:19.363Z,15.73
2022-10-30T02:26:52.314Z,15.53
2022-10-30T02:28:25.103Z,16.00
2022-10-30T02:29:57.811Z,14.20
2022-10-30T02:31:31.580Z,14.03
2022-10-30T02:33:04.442Z,13.90
2022-10-30T02:34:37.720Z,12.80
2022-10-30T02:36:11.810Z,14.20
2022-10-30T02:37:44.556Z,14.67
2022-10-30T02:39:16.291Z,14.43
2022-10-30T02:40:48.999Z,13.87
2022-10-30T02:42:23.104Z,13.60
2022-10-30T02:43:55.974Z,15.07
2022-10-30T02:45:28.845Z,15.60
2022-10-30T02:47:00.980Z,14.13
2022-10-30T02:48:34.076Z,14.40
2022-10-30T02:50:08.045Z,12.73
2022-10-30T02:51:41.180Z,13.53
2022-10-30T02:53:13.902Z,11.93
2022-10-30T02:54:46.699Z,11.63
2022-10-30T02:56:19.453Z,12.10
2022-10-30T02:57:52.269Z,11.63
2022-10-30T02:59:24.986Z,11.33
2022-10-30T03:00:57.787Z,11.37
2022-10-30T03:02:30.526Z,12.47
2022-10-30T03:04:02.295Z,13.13
2022-10-30T03:05:35.060Z,13.23
2022-10-30T03:07:09.140Z,12.73
2022-10-30T03:08:41.249Z,13.30
2022-10-30T03:10:13.961Z,13.53
2022-10-30T03:11:46.010Z,13.77
2022-10-30T03:13:18.711Z,13.90
2022-10-30T03:14:51.455Z,13.90
2022-10-30T03:16:26.010Z,13.70
2022-10-30T03:17:59.054Z,12.93
2022-10-30T03:19:32.176Z,14.13
2022-10-30T03:21:07.226Z,12.23
2022-10-30T03:22:41.257Z,12.63
2022-10-30T03:24:14.163Z,11.30
2022-10-30T03:25:46.868Z,11.00
2022-10-30T03:27:19.667Z,11.53
2022-10-30T03:28:52.438Z,12.23
2022-10-30T03:30:25.146Z,12.40
2022-10-30T03:31:57.858Z,11.70
2022-10-30T03:33:31.179Z,12.37
2022-10-30T03:35:04.015Z,14.23
2022-10-30T03:36:36.872Z,14.00
2022-10-30T03:38:09.962Z,14.90
2022-10-30T03:39:42.677Z,14.00
2022-10-30T03:41:14.434Z,15.70
2022-10-30T03:42:47.169Z,12.87
2022-10-30T03:44:19.866Z,12.33
2022-10-30T03:45:53.243Z,12.90
2022-10-30T03:47:25.980Z,13.50
2022-10-30T03:48:58.763Z,12.17
2022-10-30T03:50:30.806Z,11.73
2022-10-30T03:52:03.513Z,13.23
2022-10-30T03:53:37.569Z,13.77
2022-10-30T03:55:10.526Z,12.10
2022-10-30T03:56:45.068Z,14.73
2022-10-30T03:58:17.808Z,13.13
2022-10-30T03:59:50.930Z,11.50
2022-10-30T04:01:23.859Z,14.47
2022-10-30T04:02:57.092Z,12.80
2022-10-30T04:04:30.039Z,12.10
2022-10-30T04:06:02.981Z,11.30
2022-10-30T04:07:34.734Z,10.10
2022-10-30T04:09:08.844Z,11.70
2022-10-30T04:10:44.106Z,12.10
2022-10-30T04:12:15.944Z,12.30
2022-10-30T04:13:48.683Z,10.77
2022-10-30T04:15:21.439Z,11.00
2022-10-30T04:16:54.147Z,11.03
2022-10-30T04:18:27.199Z,10.07
2022-10-30T04:19:59.056Z,9.73
2022-10-30T04:21:31.826Z,11.13
2022-10-30T04:23:08.421Z,10.63
2022-10-30T04:24:42.677Z,12.10
2022-10-30T04:26:15.843Z,10.90
2022-10-30T04:27:49.266Z,10.30
2022-10-30T04:29:21.981Z,10.17
2022-10-30T04:30:54.698Z,9.67
2022-10-30T04:32:27.658Z,10.37
2022-10-30T04:34:00.407Z,10.17
2022-10-30T04:35:36.790Z,9.30
2022-10-30T04:37:09.822Z,8.90
2022-10-30T04:38:42.545Z,8.53
2022-10-30T04:40:15.749Z,8.70
2022-10-30T04:41:48.461Z,8.97
2022-10-30T04:43:21.175Z,8.23
2022-10-30T04:44:52.939Z,10.20
2022-10-30T04:46:25.668Z,11.63
2022-10-30T04:48:02.163Z,12.37
2022-10-30T04:49:34.983Z,11.90
2022-10-30T04:51:08.201Z,10.50
2022-10-30T04:52:39.977Z,10.90
2022-10-30T04:54:12.683Z,11.90
2022-10-30T04:55:46.807Z,10.70
2022-10-30T04:57:19.493Z,10.17
2022-10-30T04:58:52.318Z,11.80
2022-10-30T05:00:25.917Z,12.27
2022-10-30T05:01:58.839Z,11.87
2022-10-30T05:03:31.739Z,12.73
2022-10-30T05:05:04.166Z,13.70
2022-10-30T05:06:36.892Z,11.70
2022-10-30T05:08:09.779Z,14.30
2022-10-30T05:09:42.541Z,12.93
2022-10-30T05:11:16.892Z,11.67
2022-10-30T05:12:48.792Z,11.30
2022-10-30T05:14:21.511Z,11.23
2022-10-30T05:15:55.470Z,12.70
2022-10-30T05:17:28.275Z,11.60
2022-10-30T05:19:01.051Z,12.10
2022-10-30T05:20:33.813Z,11.97
2022-10-30T05:22:06.559Z,11.30
2022-10-30T05:23:39.510Z,10.57
2022-10-30T05:25:12.222Z,10.80
2022-10-30T05:26:46.954Z,12.67
2022-10-30T05:28:19.676Z,11.47
2022-10-30T05:29:52.371Z,12.07
2022-10-30T05:31:24.170Z,12.47
2022-10-30T05:33:00.798Z,11.33
2022-10-30T05:34:33.829Z,12.23
2022-10-30T05:36:07.083Z,12.70
2022-10-30T05:37:41.397Z,12.17
2022-10-30T05:39:14.130Z,12.73
2022-10-30T05:40:47.299Z,12.20
2022-10-30T05:42:21.350Z,10.63
2022-10-30T05:43:54.069Z,11.30
2022-10-30T05:45:27.345Z,11.97
2022-10-30T05:46:59.090Z,11.63
2022-10-30T05:48:31.816Z,12.47
2022-10-30T05:50:05.857Z,12.50
2022-10-30T05:51:40.586Z,12.97
2022-10-30T05:53:13.510Z,12.70
2022-10-30T05:54:46.220Z,12.60
2022-10-30T05:56:18.921Z,12.30
2022-10-30T05:57:57.081Z,11.80
2022-10-30T05:59:30.016Z,12.50
2022-10-30T06:01:06.777Z,11.67
2022-10-30T06:02:39.521Z,12.20
2022-10-30T06:04:12.405Z,12.00
2022-10-30T06:05:46.432Z,13.10
2022-10-30T06:07:19.155Z,11.37
2022-10-30T06:08:51.875Z,12.27
2022-10-30T06:10:25.203Z,12.07
2022-10-30T06:11:58.512Z,12.90
2022-10-30T06:13:32.581Z,12.40
2022-10-30T06:15:05.910Z,14.10
2022-10-30T06:16:38.756Z,14.90
2022-10-30T06:18:11.477Z,13.60
2022-10-30T06:19:44.206Z,14.10
2022-10-30T06:21:16.910Z,13.97
2022-10-30T06:22:56.566Z,13.83
2022-10-30T06:24:29.279Z,14.83
2022-10-30T06:26:01.983Z,14.57
2022-10-30T06:27:35.939Z,14.23
2022-10-30T06:29:10.023Z,13.60
2022-10-30T06:30:42.848Z,12.70
2022-10-30T06:32:15.603Z,12.37
2022-10-30T06:33:48.331Z,12.60
2022-10-30T06:35:20.117Z,12.30
2022-10-30T06:36:52.882Z,11.93
2022-10-30T06:38:25.598Z,11.43
2022-10-30T06:39:57.355Z,12.30
2022-10-30T06:41:30.660Z,11.47
2022-10-30T06:43:03.572Z,13.57
2022-10-30T06:44:37.710Z,13.33
2022-10-30T06:46:10.422Z,14.40
2022-10-30T06:47:42.510Z,14.90
2022-10-30T06:49:15.216Z,14.23
2022-10-30T06:50:47.899Z,11.50
2022-10-30T06:52:22.925Z,14.73
2022-10-30T06:53:55.632Z,13.70
2022-10-30T06:55:28.424Z,12.57
2022-10-30T06:57:01.856Z,10.57
2022-10-30T06:58:38.839Z,9.80
2022-10-30T07:00:13.418Z,9.00
2022-10-30T07:01:46.210Z,8.13
2022-10-30T07:03:19.098Z,8.37
2022-10-30T07:04:50.888Z,9.13
2022-10-30T07:06:23.583Z,10.23
2022-10-30T07:07:57.781Z,9.23
2022-10-30T07:09:30.490Z,10.10
2022-10-30T07:11:03.455Z,10.07
2022-10-30T07:12:36.136Z,9.20
2022-10-30T07:14:08.856Z,9.23
2022-10-30T07:17:20.645Z,10.60
2022-10-30T07:18:53.344Z,11.20
2022-10-30T07:20:27.157Z,11.30
2022-10-30T07:22:01.280Z,10.80
2022-10-30T07:23:34.058Z,10.83
2022-10-30T07:25:07.164Z,10.73
2022-10-30T07:26:39.872Z,11.37
2022-10-30T07:28:12.571Z,10.77
2022-10-30T07:29:45.270Z,11.30
2022-10-30T07:31:28.946Z,11.33
2022-10-30T07:33:12.102Z,11.50
2022-10-30T07:34:44.822Z,10.90
2022-10-30T07:36:17.522Z,11.07
2022-10-30T07:37:50.239Z,11.67
2022-10-30T07:39:22.939Z,11.33
2022-10-30T07:40:54.719Z,11.60
2022-10-30T07:42:27.482Z,12.10
2022-10-30T07:44:00.184Z,11.17
2022-10-30T07:45:33.621Z,10.93
2022-10-30T07:47:07.650Z,12.00
2022-10-30T07:48:40.709Z,10.20
2022-10-30T07:50:13.429Z,11.70
2022-10-30T07:51:46.143Z,11.50
2022-10-30T07:53:18.891Z,11.33
2022-10-30T07:54:51.588Z,10.33
2022-10-30T07:56:24.368Z,10.60
2022-10-30T07:57:57.417Z,10.20
2022-10-30T07:59:30.347Z,10.03
2022-10-30T08:01:03.582Z,9.10
2022-10-30T08:02:38.364Z,10.10
2022-10-30T08:04:13.872Z,10.40
2022-10-30T08:05:46.572Z,9.03
2022-10-30T08:07:20.321Z,9.77
2022-10-30T08:08:53.045Z,9.87
2022-10-30T08:10:25.779Z,10.80
2022-10-30T08:11:58.475Z,9.97
2022-10-30T08:13:31.198Z,9.60
2022-10-30T08:15:04.124Z,10.17
2022-10-30T08:16:36.847Z,10.10
2022-10-30T08:18:10.897Z,9.77
2022-10-30T08:19:43.589Z,9.40
2022-10-30T08:21:16.349Z,9.67
2022-10-30T08:22:49.964Z,9.13
2022-10-30T08:24:22.660Z,9.73
2022-10-30T08:26:00.159Z,9.63
2022-10-30T08:27:33.802Z,9.43
2022-10-30T08:29:06.906Z,9.80
2022-10-30T08:30:39.764Z,9.13
2022-10-30T08:32:12.606Z,9.47
2022-10-30T08:33:46.663Z,9.63
2022-10-30T08:35:20.222Z,9.30
2022-10-30T08:36:53.211Z,9.30
2022-10-30T08:38:26.874Z,9.80
2022-10-30T08:39:59.624Z,9.73
2022-10-30T08:41:32.369Z,9.60
2022-10-30T08:43:05.236Z,9.73
2022-10-30T08:44:37.956Z,9.70
2022-10-30T08:46:10.679Z,10.40
2022-10-30T08:47:43.399Z,9.80
2022-10-30T08:49:17.426Z,11.03
2022-10-30T08:50:51.084Z,10.20
2022-10-30T08:52:23.873Z,9.93
2022-10-30T08:53:56.555Z,11.93
2022-10-30T08:55:29.339Z,14.67
2022-10-30T08:57:02.208Z,15.23
2022-10-30T08:58:34.912Z,15.13
2022-10-30T09:00:09.141Z,14.97
2022-10-30T09:01:41.903Z,13.67
2022-10-30T09:03:14.705Z,13.30
2022-10-30T09:04:48.739Z,13.10
2022-10-30T09:06:21.461Z,11.60
2022-10-30T09:07:57.849Z,10.67
2022-10-30T09:09:30.792Z,10.93
2022-10-30T09:11:03.657Z,9.03
2022-10-30T09:12:36.478Z,9.17
2022-10-30T09:14:11.973Z,9.07
2022-10-30T09:15:44.663Z,8.57
2022-10-30T09:17:17.380Z,9.00
2022-10-30T09:18:50.113Z,8.90
2022-10-30T09:20:24.395Z,9.67
2022-10-30T09:21:57.111Z,10.00
2022-10-30T09:23:29.824Z,9.13
2022-10-30T09:25:02.516Z,10.07
2022-10-30T09:26:35.547Z,10.00
2022-10-30T09:28:08.267Z,10.07
2022-10-30T09:29:40.984Z,10.23
2022-10-30T09:31:13.735Z,10.30
2022-10-30T09:32:49.941Z,9.47
2022-10-30T09:34:25.515Z,9.87
2022-10-30T09:35:59.551Z,9.37
2022-10-30T09:37:35.412Z,9.40
2022-10-30T09:39:08.098Z,8.67
2022-10-30T09:40:55.414Z,9.57
2022-10-30T09:42:43.750Z,8.60
2022-10-30T09:44:25.461Z,8.40
2022-10-30T09:46:22.740Z,8.20
2022-10-30T09:48:10.300Z,8.40
2022-10-30T09:49:53.419Z,8.17
2022-10-30T09:51:47.324Z,8.30
2022-10-30T09:53:36.252Z,8.87
2022-10-30T09:55:33.318Z,7.73
2022-10-30T09:57:10.676Z,8.03
2022-10-30T09:58:51.326Z,8.20
2022-10-30T10:00:27.419Z,7.97
2022-10-30T10:02:03.822Z,8.03
2022-10-30T10:05:30.919Z,7.90
2022-10-30T10:07:12.462Z,7.67
2022-10-30T10:08:50.935Z,8.07
2022-10-30T10:10:38.676Z,8.50
2022-10-30T10:12:15.939Z,8.13
2022-10-30T10:13:54.335Z,8.03
2022-10-30T10:15:37.730Z,8.17
2022-10-30T10:17:14.852Z,8.27
2022-10-30T10:18:49.284Z,8.57
2022-10-30T10:20:30.943Z,8.23
2022-10-30T10:22:15.230Z,8.50
2022-10-30T10:23:49.434Z,8.30
2022-10-30T10:25:22.418Z,9.13
2022-10-30T10:27:01.649Z,9.13
2022-10-30T10:28:50.642Z,9.93
2022-10-30T10:30:24.850Z,9.80
2022-10-30T10:32:14.084Z,8.93
2022-10-30T10:34:01.833Z,10.30
2022-10-30T10:35:48.133Z,10.17
2022-10-30T10:37:32.554Z,10.13
2022-10-30T10:39:34.861Z,9.83
2022-10-30T10:41:19.098Z,9.87
2022-10-30T10:43:03.973Z,10.33
2022-10-30T10:44:46.576Z,10.50
2022-10-30T10:46:34.840Z,10.20
2022-10-30T10:48:27.546Z,9.90
2022-10-30T10:50:16.627Z,9.57
2022-10-30T10:51:55.080Z,10.40
2022-10-30T10:53:34.781Z,10.40
2022-10-30T10:55:15.533Z,9.70
2022-10-30T10:56:50.816Z,9.53
2022-10-30T10:58:30.398Z,10.20
2022-10-30T11:00:06.142Z,9.93
2022-10-30T11:01:41.139Z,10.80
2022-10-30T11:03:18.593Z,10.43
2022-10-30T11:04:54.863Z,9.80
2022-10-30T11:06:30.763Z,9.80
2022-10-30T11:08:12.448Z,9.93
2022-10-30T11:09:49.112Z,9.20
2022-10-30T11:11:21.925Z,10.30
2022-10-30T11:12:53.794Z,9.97
2022-10-30T11:14:30.135Z,9.47
2022-10-30T11:16:10.467Z,10.00
2022-10-30T11:17:51.910Z,10.77
2022-10-30T11:19:24.856Z,10.67
2022-10-30T11:21:02.229Z,9.83
2022-10-30T11:22:40.955Z,9.30
2022-10-30T11:24:28.859Z,10.20
2022-10-30T11:26:03.677Z,9.60
2022-10-30T11:27:36.708Z,9.70
2022-10-30T11:29:14.458Z,9.67
2022-10-30T11:30:47.184Z,9.33
2022-10-30T11:32:22.617Z,9.00
2022-10-30T11:33:55.771Z,9.30
2022-10-30T11:35:28.509Z,9.43
2022-10-30T11:37:01.258Z,8.77
2022-10-30T11:38:34.030Z,8.87
2022-10-30T11:40:17.170Z,8.23
2022-10-30T11:41:58.008Z,7.90
2022-10-30T11:43:33.451Z,7.60
2022-10-30T11:45:14.278Z,7.20
2022-10-30T11:46:47.184Z,7.67
2022-10-30T11:48:26.037Z,7.00
2022-10-30T11:50:01.046Z,7.10
2022-10-30T11:51:40.053Z,7.30
2022-10-30T11:53:31.093Z,7.10
2022-10-30T11:55:12.661Z,6.60
2022-10-30T11:56:48.902Z,6.80
2022-10-30T11:58:28.119Z,7.27
2022-10-30T12:00:07.915Z,7.33
2022-10-30T12:01:42.714Z,7.10
2022-10-30T12:03:30.233Z,7.63
2022-10-30T12:05:03.625Z,6.77
2022-10-30T12:06:36.350Z,7.20
2022-10-30T12:08:21.087Z,7.13
2022-10-30T12:09:53.855Z,7.73
2022-10-30T12:11:29.700Z,7.30
2022-10-30T12:13:05.679Z,8.13
2022-10-30T12:14:39.765Z,7.97
2022-10-30T12:16:17.752Z,7.80
2022-10-30T12:17:54.802Z,8.20
2022-10-30T12:19:27.779Z,7.13
2022-10-30T12:21:00.743Z,8.23
2022-10-30T12:22:35.189Z,7.23
2022-10-30T12:24:17.162Z,6.33
2022-10-30T12:25:52.584Z,7.70
2022-10-30T12:27:25.929Z,7.87
2022-10-30T12:29:01.451Z,6.87
2022-10-30T12:30:38.714Z,6.80
2022-10-30T12:32:18.915Z,7.40
2022-10-30T12:33:59.674Z,7.17
2022-10-30T12:35:41.062Z,6.67
2022-10-30T12:37:19.528Z,6.40
2022-10-30T12:38:57.208Z,6.60
2022-10-30T12:40:32.178Z,6.87
2022-10-30T12:42:09.906Z,6.87
2022-10-30T12:43:46.760Z,5.90
2022-10-30T12:45:23.293Z,6.40
2022-10-30T12:47:03.790Z,6.57
2022-10-30T12:48:42.660Z,6.47
2022-10-30T12:50:22.896Z,7.00
2022-10-30T12:51:59.487Z,6.83
2022-10-30T12:53:39.524Z,6.30
2022-10-30T12:55:20.351Z,6.87
2022-10-30T12:57:01.403Z,6.10
2022-10-30T12:58:40.861Z,6.70
2022-10-30T13:00:16.158Z,6.57
2022-10-30T13:01:55.556Z,6.70
2022-10-30T13:03:36.081Z,7.07
2022-10-30T13:05:26.717Z,6.10
2022-10-30T13:07:06.067Z,6.40
2022-10-30T13:08:48.591Z,6.23
2022-10-30T13:10:29.087Z,6.37
2022-10-30T13:12:06.103Z,5.60
2022-10-30T13:13:43.128Z,6.03
2022-10-30T13:15:21.860Z,6.77
2022-10-30T13:16:54.561Z,5.97
2022-10-30T13:18:32.426Z,5.97
2022-10-30T13:20:13.402Z,6.30
2022-10-30T13:21:53.451Z,5.80
2022-10-30T13:23:32.676Z,5.83
2022-10-30T13:25:11.556Z,5.33
2022-10-30T13:26:50.535Z,5.47
2022-10-30T13:28:27.806Z,5.90
2022-10-30T13:30:05.097Z,5.70
2022-10-30T13:31:47.696Z,5.73
2022-10-30T13:33:28.805Z,5.77
2022-10-30T13:35:15.666Z,5.50
2022-10-30T13:36:56.065Z,5.70
2022-10-30T13:38:41.508Z,5.50
2022-10-30T13:40:21.805Z,6.00
2022-10-30T13:42:07.579Z,6.33
2022-10-30T13:43:48.163Z,6.27
2022-10-30T13:45:59.588Z,5.50
2022-10-30T13:47:42.409Z,6.20
2022-10-30T13:49:32.971Z,6.10
2022-10-30T13:51:24.563Z,6.30
2022-10-30T13:53:02.497Z,5.63
2022-10-30T13:54:39.648Z,6.33
2022-10-30T13:56:17.056Z,6.30
2022-10-30T13:57:56.320Z,5.67
2022-10-30T13:59:49.544Z,5.80
2022-10-30T14:01:26.419Z,5.70
2022-10-30T14:03:16.820Z,5.90
2022-10-30T14:04:55.360Z,5.50
2022-10-30T14:06:37.554Z,5.60
2022-10-30T14:08:18.806Z,5.17
2022-10-30T14:10:00.833Z,5.20
2022-10-30T14:11:33.603Z,5.13
2022-10-30T14:13:15.673Z,5.50
2022-10-30T14:14:49.450Z,5.70
2022-10-30T14:16:39.884Z,5.63
2022-10-30T14:18:31.466Z,5.50
2022-10-30T14:20:27.581Z,5.53
2022-10-30T14:22:01.646Z,5.77
2022-10-30T14:23:35.798Z,5.37
2022-10-30T14:25:15.036Z,6.03
2022-10-30T14:26:53.470Z,5.17
2022-10-30T14:28:25.346Z,5.10
2022-10-30T14:29:58.572Z,5.87
2022-10-30T14:31:36.643Z,5.73
2022-10-30T14:33:35.014Z,5.93
2022-10-30T14:35:41.141Z,5.70
2022-10-30T14:37:15.228Z,5.90
2022-10-30T14:39:01.931Z,5.93
2022-10-30T14:40:40.741Z,6.20
2022-10-30T14:42:19.936Z,6.93
2022-10-30T14:44:11.706Z,5.70
2022-10-30T14:45:49.377Z,5.67
2022-10-30T14:47:50.012Z,6.10
2022-10-30T14:49:42.148Z,5.90
2022-10-30T14:51:20.075Z,5.73
2022-10-30T14:53:18.850Z,5.73
2022-10-30T14:55:04.735Z,5.80
2022-10-30T14:56:46.152Z,6.60
2022-10-30T14:58:23.749Z,6.17
2022-10-30T15:00:30.520Z,6.60
2022-10-30T15:02:30.143Z,6.43
2022-10-30T15:04:16.191Z,5.67
2022-10-30T15:05:53.385Z,6.03
2022-10-30T15:07:34.115Z,6.37
2022-10-30T15:09:24.835Z,6.43
2022-10-30T15:11:25.519Z,7.30
2022-10-30T15:13:07.672Z,5.93
2022-10-30T15:14:58.949Z,6.13
2022-10-30T15:16:32.802Z,6.70
2022-10-30T15:18:10.417Z,6.00
2022-10-30T15:19:43.406Z,6.60
2022-10-30T15:21:23.079Z,5.93
2022-10-30T15:22:58.313Z,6.53
2022-10-30T15:24:34.915Z,6.50
2022-10-30T15:26:10.278Z,6.70
2022-10-30T15:27:46.563Z,6.50
2022-10-30T15:29:22.239Z,6.90
2022-10-30T15:31:02.784Z,6.67
2022-10-30T15:32:41.327Z,6.73
2022-10-30T15:34:22.499Z,6.67
2022-10-30T15:35:55.270Z,6.37
2022-10-30T15:37:28.676Z,6.40
2022-10-30T15:39:06.112Z,6.43
2022-10-30T15:40:40.388Z,7.00
2022-10-30T15:42:13.343Z,7.10
2022-10-30T15:43:46.833Z,6.57
2022-10-30T15:45:22.847Z,6.70
2022-10-30T15:46:57.366Z,6.20
2022-10-30T15:48:33.895Z,6.67
2022-10-30T15:50:07.086Z,6.77
2022-10-30T15:51:46.516Z,6.57
2022-10-30T15:53:21.708Z,6.43
2022-10-30T15:54:58.323Z,6.43
2022-10-30T15:56:38.286Z,6.60
2022-10-30T15:58:22.680Z,6.17
2022-10-30T15:59:58.462Z,6.77
2022-10-30T16:01:34.361Z,7.33
2022-10-30T16:03:16.264Z,7.17
2022-10-30T16:04:49.214Z,6.57
2022-10-30T16:06:27.674Z,6.50
2022-10-30T16:08:02.402Z,7.27
2022-10-30T16:09:35.258Z,6.30
2022-10-30T16:11:08.122Z,5.97
2022-10-30T16:12:43.697Z,6.57
2022-10-30T16:14:19.042Z,7.13
2022-10-30T16:15:52.515Z,6.93
2022-10-30T16:17:26.602Z,7.57
2022-10-30T16:19:01.168Z,6.50
2022-10-30T16:20:35.178Z,6.60
2022-10-30T16:22:16.087Z,6.87
2022-10-30T16:23:51.664Z,6.53
2022-10-30T16:25:24.820Z,9.40
2022-10-30T16:27:06.697Z,12.67
2022-10-30T16:28:40.756Z,37.13
2022-10-30T16:30:15.771Z,8.10
2022-10-30T16:31:50.532Z,6.83
2022-10-30T16:33:27.065Z,6.80
2022-10-30T16:35:02.368Z,6.87
2022-10-30T16:36:35.545Z,7.00
2022-10-30T16:38:13.583Z,7.20
2022-10-30T16:39:49.031Z,7.03
2022-10-30T16:41:26.733Z,6.67
2022-10-30T16:43:03.400Z,6.27
2022-10-30T16:44:37.721Z,6.50
2022-10-30T16:46:36.215Z,6.80
2022-10-30T16:49:58.663Z,7.73
2022-10-30T16:51:31.750Z,10.77
2022-10-30T16:53:07.226Z,9.10
2022-10-30T16:54:42.791Z,8.07
2022-10-30T16:56:22.856Z,6.93
2022-10-30T16:57:57.925Z,6.93
2022-10-30T16:59:38.174Z,7.03
2022-10-30T17:01:11.486Z,7.13
2022-10-30T17:02:47.760Z,6.90
2022-10-30T17:04:19.583Z,6.67
2022-10-30T17:06:01.428Z,8.50
2022-10-30T17:07:34.780Z,8.70
2022-10-30T17:09:09.418Z,8.10
2022-10-30T17:10:45.450Z,8.07
2022-10-30T17:12:22.780Z,7.50
2022-10-30T17:13:59.471Z,8.00
2022-10-30T17:15:34.009Z,7.87
2022-10-30T17:17:28.190Z,7.80
2022-10-30T17:19:02.565Z,8.07
2022-10-30T17:20:35.291Z,7.67
2022-10-30T17:22:13.730Z,7.87
2022-10-30T17:23:47.861Z,7.20
2022-10-30T17:25:31.818Z,7.57
2022-10-30T17:27:07.192Z,7.27
2022-10-30T17:28:41.049Z,6.50
2022-10-30T17:30:36.156Z,7.17
2022-10-30T17:32:20.090Z,6.20
2022-10-30T17:34:13.397Z,7.30
2022-10-30T17:35:46.179Z,8.40
2022-10-30T17:37:18.919Z,8.90
2022-10-30T17:38:51.622Z,8.10
2022-10-30T17:40:24.424Z,8.37
2022-10-30T17:41:58.638Z,7.60
2022-10-30T17:43:35.424Z,8.47
2022-10-30T17:45:13.288Z,8.77
2022-10-30T17:46:47.382Z,9.00
2022-10-30T17:48:29.180Z,8.50
2022-10-30T17:50:03.235Z,7.97
2022-10-30T17:51:36.150Z,9.60
2022-10-30T17:53:14.991Z,9.80
2022-10-30T17:54:47.819Z,9.03
2022-10-30T17:56:23.872Z,13.83
2022-10-30T17:57:56.608Z,13.23
2022-10-30T17:59:29.722Z,12.27
2022-10-30T18:01:02.526Z,12.53
2022-10-30T18:02:36.701Z,12.80
2022-10-30T18:04:20.497Z,10.37
2022-10-30T18:05:54.280Z,9.20
2022-10-30T18:07:27.012Z,8.93
2022-10-30T18:08:59.741Z,8.93
2022-10-30T18:10:32.478Z,9.73
2022-10-30T18:12:06.242Z,8.87
2022-10-30T18:13:39.045Z,8.90
2022-10-30T18:15:30.840Z,8.80
2022-10-30T18:17:03.610Z,8.90
2022-10-30T18:18:37.915Z,9.77
2022-10-30T18:20:11.055Z,9.47
2022-10-30T18:21:45.202Z,11.00
2022-10-30T18:23:46.585Z,10.30
2022-10-30T18:25:19.242Z,9.73
2022-10-30T18:26:53.770Z,9.90
2022-10-30T18:28:26.519Z,9.60
2022-10-30T18:29:59.226Z,9.93
2022-10-30T18:31:32.042Z,9.30
2022-10-30T18:33:05.106Z,9.33
2022-10-30T18:34:39.226Z,9.00
2022-10-30T18:36:13.940Z,9.03
2022-10-30T18:37:46.644Z,8.30
2022-10-30T18:39:19.374Z,8.30
2022-10-30T18:40:52.240Z,7.60
2022-10-30T18:42:25.028Z,8.20
2022-10-30T18:43:57.781Z,7.40
2022-10-30T18:45:35.315Z,7.80
2022-10-30T18:47:11.808Z,8.50
2022-10-30T18:48:45.356Z,8.13
2022-10-30T18:50:21.929Z,7.70
2022-10-30T18:51:55.245Z,8.97
2022-10-30T18:53:31.366Z,9.40
2022-10-30T18:55:19.161Z,9.47
2022-10-30T18:56:51.872Z,8.43
2022-10-30T18:58:24.619Z,8.47
2022-10-30T18:59:57.376Z,7.63
2022-10-30T19:01:31.507Z,7.80
2022-10-30T19:03:05.358Z,8.13
2022-10-30T19:04:38.097Z,8.37
2022-10-30T19:06:14.489Z,8.33
2022-10-30T19:07:47.248Z,7.60
2022-10-30T19:09:19.969Z,6.77
2022-10-30T19:10:56.623Z,6.70
2022-10-30T19:12:29.419Z,6.87
2022-10-30T19:14:02.162Z,7.97
2022-10-30T19:15:37.553Z,8.30
2022-10-30T19:17:10.263Z,8.37
2022-10-30T19:18:43.463Z,15.40
2022-10-30T19:20:16.337Z,16.73
2022-10-30T19:21:52.394Z,11.53
2022-10-30T19:23:26.314Z,11.27
2022-10-30T19:24:59.070Z,8.33
2022-10-30T19:26:31.824Z,8.43
2022-10-30T19:28:04.744Z,10.67
2022-10-30T19:29:37.466Z,12.23
2022-10-30T19:31:13.798Z,14.27
2022-10-30T19:32:46.971Z,8.70
2022-10-30T19:34:20.079Z,7.57
2022-10-30T19:35:57.050Z,6.70
2022-10-30T19:37:31.173Z,6.93
2022-10-30T19:39:09.233Z,6.47
2022-10-30T19:40:44.184Z,7.03
2022-10-30T19:42:16.958Z,7.83
2022-10-30T19:43:49.695Z,8.37
2022-10-30T19:45:24.492Z,8.07
2022-10-30T19:46:57.231Z,7.03
2022-10-30T19:48:56.098Z,8.93
2022-10-30T19:50:29.778Z,10.03
2022-10-30T19:52:02.612Z,9.93
2022-10-30T19:53:36.690Z,10.60
2022-10-30T19:55:10.238Z,10.97
2022-10-30T19:56:44.479Z,10.93
2022-10-30T19:58:20.875Z,10.53
2022-10-30T19:59:57.869Z,10.43
2022-10-30T20:01:31.182Z,10.97
2022-10-30T20:03:05.593Z,9.97
2022-10-30T20:04:38.322Z,9.60
2022-10-30T20:06:12.679Z,9.03
2022-10-30T20:07:45.925Z,9.33
2022-10-30T20:09:20.155Z,9.90
2022-10-30T20:10:54.944Z,9.10
2022-10-30T20:12:26.763Z,9.47
2022-10-30T20:13:59.542Z,9.60
2022-10-30T20:15:32.395Z,9.30
2022-10-30T20:17:05.372Z,8.67
2022-10-30T20:18:38.553Z,9.30
2022-10-30T20:20:15.130Z,8.40
2022-10-30T20:21:48.004Z,10.10
2022-10-30T20:23:22.452Z,10.20
2022-10-30T20:24:56.000Z,14.00
2022-10-30T20:26:30.792Z,12.23
2022-10-30T20:28:12.814Z,15.07
2022-10-30T20:29:45.562Z,12.77
2022-10-30T20:31:18.515Z,14.03
2022-10-30T20:32:51.894Z,13.17
2022-10-30T20:34:24.681Z,13.37
2022-10-30T20:35:57.686Z,13.73
2022-10-30T20:37:30.488Z,14.37
2022-10-30T20:39:03.763Z,14.47
2022-10-30T20:40:38.139Z,14.80
2022-10-30T20:42:13.040Z,14.50
2022-10-30T20:43:45.991Z,14.10
2022-10-30T20:45:20.676Z,13.60
2022-10-30T20:46:53.388Z,14.80
2022-10-30T20:48:26.134Z,12.80
2022-10-30T20:49:59.181Z,15.83
2022-10-30T20:51:32.005Z,12.43
2022-10-30T20:53:04.783Z,10.80
2022-10-30T20:54:37.586Z,10.87
2022-10-30T20:56:12.155Z,10.73
2022-10-30T20:57:45.027Z,11.80
2022-10-30T20:59:17.765Z,12.23
2022-10-30T21:00:51.101Z,11.40
2022-10-30T21:02:24.058Z,11.57
2022-10-30T21:04:01.468Z,11.83
2022-10-30T21:05:43.839Z,12.27
2022-10-30T21:07:17.880Z,11.87